createdAt,value
2019-06-15T00:03:41.162Z,19.95
2019-06-15T00:08:46.329Z,18.73
2019-06-15T00:13:51.367Z,22.37
2019-06-15T00:18:56.477Z,25.10
2019-06-15T00:24:01.880Z,19.37
2019-06-15T00:29:07.398Z,18.70
2019-06-15T00:34:12.516Z,19.82
2019-06-15T00:39:17.634Z,19.37
2019-06-15T00:44:22.842Z,20.48
2019-06-15T00:49:28.271Z,23.12
2019-06-15T00:54:33.308Z,21.68
2019-06-15T00:59:38.447Z,21.25
2019-06-15T01:04:43.548Z,19.92
2019-06-15T01:09:49.764Z,17.92
2019-06-15T01:14:55.214Z,20.52
2019-06-15T01:20:01.368Z,20.30
2019-06-15T01:25:07.843Z,20.08
2019-06-15T01:30:13.116Z,20.75
2019-06-15T01:35:18.568Z,20.92
2019-06-15T01:40:23.716Z,22.00
2019-06-15T01:45:28.773Z,21.62
2019-06-15T01:50:33.823Z,20.92
2019-06-15T01:55:39.169Z,21.68
2019-06-15T02:00:44.243Z,20.90
2019-06-15T02:05:49.347Z,21.45
2019-06-15T02:10:54.490Z,22.73
2019-06-15T02:16:02.276Z,21.90
2019-06-15T02:21:07.447Z,25.43
2019-06-15T02:26:12.888Z,23.52
2019-06-15T02:31:17.935Z,22.45
2019-06-15T02:36:23.035Z,22.75
2019-06-15T02:41:28.065Z,21.97
2019-06-15T02:46:33.122Z,22.20
2019-06-15T02:51:38.733Z,24.10
2019-06-15T02:56:46.818Z,23.95
2019-06-15T03:01:51.935Z,24.15
2019-06-15T03:06:57.008Z,25.60
2019-06-15T03:12:02.357Z,23.27
2019-06-15T03:17:07.464Z,22.25
2019-06-15T03:22:12.557Z,21.85
2019-06-15T03:27:17.745Z,23.73
2019-06-15T03:32:22.865Z,22.95
2019-06-15T03:37:27.985Z,29.95
2019-06-15T03:42:33.049Z,22.80
2019-06-15T03:47:38.137Z,26.12
2019-06-15T03:52:43.293Z,22.32
2019-06-15T03:57:48.409Z,22.25
2019-06-15T04:02:53.472Z,25.97
2019-06-15T04:07:58.547Z,21.33
2019-06-15T04:13:03.677Z,22.32
2019-06-15T04:18:08.742Z,22.07
2019-06-15T04:23:13.875Z,23.02
2019-06-15T04:28:19.030Z,23.57
2019-06-15T04:33:24.074Z,22.98
2019-06-15T04:38:29.080Z,23.65
2019-06-15T04:43:34.209Z,24.07
2019-06-15T04:48:39.630Z,23.52
2019-06-15T04:53:44.729Z,24.12
2019-06-15T04:58:50.081Z,23.92
2019-06-15T05:03:55.154Z,23.92
2019-06-15T05:09:00.317Z,24.40
2019-06-15T05:14:06.157Z,24.25
2019-06-15T05:19:11.174Z,24.70
2019-06-15T05:24:16.286Z,24.12
2019-06-15T05:29:21.385Z,30.52
2019-06-15T05:34:26.420Z,26.33
2019-06-15T05:39:31.499Z,25.77
2019-06-15T05:44:36.579Z,26.17
2019-06-15T05:49:41.649Z,25.55
2019-06-15T05:54:49.044Z,24.60
2019-06-15T05:59:54.217Z,26.23
2019-06-15T06:04:59.429Z,24.02
2019-06-15T06:10:05.060Z,27.37
2019-06-15T06:15:10.544Z,27.25
2019-06-15T06:20:16.037Z,27.87
2019-06-15T06:25:21.106Z,28.67
2019-06-15T06:30:26.152Z,27.90
2019-06-15T06:35:31.230Z,27.73
2019-06-15T06:40:36.284Z,28.57
2019-06-15T06:45:41.351Z,29.00
2019-06-15T06:50:46.473Z,32.50
2019-06-15T06:55:51.556Z,32.25
2019-06-15T07:00:56.591Z,29.98
2019-06-15T07:06:01.633Z,30.12
2019-06-15T07:11:07.473Z,35.23
2019-06-15T07:16:12.585Z,34.05
2019-06-15T07:21:18.011Z,32.53
2019-06-15T07:26:23.207Z,32.30
2019-06-15T07:31:28.515Z,29.57
2019-06-15T07:36:33.894Z,32.90
2019-06-15T07:41:39.016Z,29.48
2019-06-15T07:46:44.092Z,30.77
2019-06-15T07:51:49.484Z,30.07
2019-06-15T07:56:54.555Z,31.02
2019-06-15T08:01:59.735Z,28.00
2019-06-15T08:07:04.875Z,26.47
2019-06-15T08:12:10.871Z,28.95
2019-06-15T08:17:16.006Z,29.12
2019-06-15T08:22:21.342Z,28.40
2019-06-15T08:27:26.851Z,29.37
2019-06-15T08:32:31.893Z,28.02
2019-06-15T08:37:36.943Z,27.52
2019-06-15T08:42:41.983Z,30.45
2019-06-15T08:47:47.050Z,30.40
2019-06-15T08:52:52.159Z,47.15
2019-06-15T08:57:57.244Z,27.93
2019-06-15T09:03:02.337Z,26.87
2019-06-15T09:08:07.471Z,25.37
2019-06-15T09:13:12.805Z,28.02
2019-06-15T09:18:18.098Z,28.85
2019-06-15T09:23:23.327Z,28.17
2019-06-15T09:28:33.626Z,26.07
2019-06-15T09:33:38.707Z,27.02
2019-06-15T09:38:44.481Z,27.40
2019-06-15T09:43:49.629Z,27.05
2019-06-15T09:48:54.727Z,31.52
2019-06-15T09:53:59.806Z,33.63
2019-06-15T09:59:04.866Z,32.60
2019-06-15T10:04:09.960Z,28.90
2019-06-15T10:09:15.091Z,32.15
2019-06-15T10:14:20.193Z,29.57
2019-06-15T10:19:56.267Z,29.37
2019-06-15T10:25:01.424Z,30.02
2019-06-15T10:30:07.657Z,28.67
2019-06-15T10:35:12.862Z,23.85
2019-06-15T10:40:18.725Z,26.48
2019-06-15T10:45:24.195Z,25.65
2019-06-15T10:50:29.362Z,28.07
2019-06-15T10:55:34.610Z,25.83
2019-06-15T11:00:40.350Z,27.00
2019-06-15T11:05:45.838Z,27.10
2019-06-15T11:11:21.622Z,25.97
2019-06-15T11:16:25.749Z,24.98
2019-06-15T11:21:30.842Z,27.50
2019-06-15T11:26:36.147Z,27.50
2019-06-15T11:31:41.707Z,29.00
2019-06-15T11:36:47.404Z,27.70
2019-06-15T11:41:53.299Z,27.50
2019-06-15T11:46:58.859Z,23.40
2019-06-15T11:52:04.397Z,23.10
2019-06-15T11:57:09.502Z,23.90
2019-06-15T12:02:14.677Z,23.03
2019-06-15T12:07:19.967Z,19.55
2019-06-15T12:12:25.028Z,20.70
2019-06-15T12:17:30.256Z,25.20
2019-06-15T12:22:35.478Z,23.92
2019-06-15T12:27:40.650Z,26.02
2019-06-15T12:32:45.799Z,25.10
2019-06-15T12:37:51.881Z,25.50
2019-06-15T12:42:56.963Z,23.25
2019-06-15T12:48:03.294Z,22.05
2019-06-15T12:53:09.632Z,23.90
2019-06-15T12:58:15.179Z,25.23
2019-06-15T13:03:20.294Z,24.00
2019-06-15T13:08:25.569Z,28.00
2019-06-15T13:13:31.104Z,21.70
2019-06-15T13:18:36.292Z,24.13
2019-06-15T13:23:43.535Z,23.53
2019-06-15T13:28:51.137Z,22.45
2019-06-15T13:33:55.491Z,22.73
2019-06-15T13:39:00.709Z,23.73
2019-06-15T13:44:07.546Z,25.30
2019-06-15T13:49:12.682Z,24.37
2019-06-15T13:54:18.635Z,25.57
2019-06-15T13:59:26.516Z,22.95
2019-06-15T14:04:31.748Z,26.80
2019-06-15T14:09:42.313Z,22.73
2019-06-15T14:14:54.066Z,24.20
2019-06-15T14:19:59.441Z,23.13
2019-06-15T14:25:07.175Z,23.77
2019-06-15T14:30:12.802Z,20.50
2019-06-15T14:35:18.102Z,23.12
2019-06-15T14:40:23.605Z,21.95
2019-06-15T14:45:28.844Z,26.40
2019-06-15T14:50:34.044Z,23.93
2019-06-15T14:55:39.225Z,25.30
2019-06-15T15:00:46.670Z,24.80
2019-06-15T15:05:51.703Z,22.73
2019-06-15T15:10:57.202Z,25.12
2019-06-15T15:16:02.402Z,24.10
2019-06-15T15:21:07.561Z,23.30
2019-06-15T15:26:12.973Z,24.10
2019-06-15T15:31:18.067Z,21.03
2019-06-15T15:36:26.307Z,21.10
2019-06-15T15:41:30.893Z,22.15
2019-06-15T15:46:36.477Z,19.00
2019-06-15T15:51:41.880Z,21.02
2019-06-15T15:56:47.127Z,22.27
2019-06-15T16:01:52.760Z,21.97
2019-06-15T16:06:58.109Z,25.50
2019-06-15T16:12:03.182Z,20.52
2019-06-15T16:17:08.302Z,19.65
2019-06-15T16:22:13.435Z,16.00
2019-06-15T16:27:18.650Z,17.95
2019-06-15T16:32:26.228Z,19.60
2019-06-15T16:37:31.038Z,18.90
2019-06-15T16:42:36.693Z,17.35
2019-06-15T16:47:43.442Z,20.50
2019-06-15T16:52:48.600Z,17.27
2019-06-15T16:57:56.648Z,17.50
2019-06-15T17:03:17.476Z,16.52
2019-06-15T17:08:09.377Z,15.30
2019-06-15T17:13:16.050Z,16.60
2019-06-15T17:18:23.456Z,20.02
2019-06-15T17:23:28.509Z,17.57
2019-06-15T17:28:36.993Z,18.73
2019-06-15T17:33:41.888Z,16.32
2019-06-15T17:38:46.934Z,15.23
2019-06-15T17:43:52.429Z,16.40
2019-06-15T17:48:57.653Z,15.38
2019-06-15T17:54:06.641Z,17.20
2019-06-15T17:59:11.870Z,14.63
2019-06-15T18:04:18.295Z,15.27
2019-06-15T18:09:25.778Z,14.23
2019-06-15T18:14:30.623Z,14.93
2019-06-15T18:19:36.965Z,16.32
2019-06-15T18:24:42.222Z,14.10
2019-06-15T18:29:47.671Z,14.85
2019-06-15T18:34:52.857Z,15.20
2019-06-15T18:39:58.072Z,16.48
2019-06-15T18:45:03.209Z,11.90
2019-06-15T18:50:11.293Z,14.18
2019-06-15T18:55:16.710Z,14.47
2019-06-15T19:00:21.817Z,13.75
2019-06-15T19:05:27.090Z,13.30
2019-06-15T19:10:33.318Z,15.40
2019-06-15T19:15:38.392Z,19.87
2019-06-15T19:20:43.923Z,15.60
2019-06-15T19:25:48.965Z,14.85
2019-06-15T19:30:56.142Z,15.68
2019-06-15T19:36:01.628Z,14.90
2019-06-15T19:41:07.125Z,15.40
2019-06-15T19:46:12.462Z,16.62
2019-06-15T19:51:17.641Z,14.87
2019-06-15T19:56:22.908Z,14.85
2019-06-15T20:01:28.864Z,20.32
2019-06-15T20:06:36.874Z,20.35
2019-06-15T20:11:41.838Z,14.60
2019-06-15T20:16:47.194Z,14.83
2019-06-15T20:21:52.263Z,13.10
2019-06-15T20:26:58.593Z,13.48
2019-06-15T20:32:06.656Z,17.35
2019-06-15T20:37:11.318Z,28.27
2019-06-15T20:42:16.639Z,13.22
2019-06-15T20:47:21.894Z,12.30
2019-06-15T20:52:27.051Z,12.47
2019-06-15T20:57:32.281Z,13.80
2019-06-15T21:02:37.855Z,14.85
2019-06-15T21:07:43.261Z,13.85
2019-06-15T21:12:48.369Z,14.35
2019-06-15T21:17:53.511Z,13.18
2019-06-15T21:22:58.580Z,12.45
2019-06-15T21:28:06.456Z,20.97
2019-06-15T21:33:11.601Z,11.53
2019-06-15T21:38:16.679Z,14.40
2019-06-15T21:43:21.858Z,12.75
2019-06-15T21:48:28.194Z,13.20
2019-06-15T21:53:33.370Z,17.67
2019-06-15T21:58:38.601Z,13.15
2019-06-15T22:03:46.319Z,13.62
2019-06-15T22:08:51.562Z,13.88
2019-06-15T22:13:57.693Z,13.58
2019-06-15T22:19:02.988Z,12.65
2019-06-15T22:24:08.101Z,13.88
2019-06-15T22:29:16.590Z,13.90
2019-06-15T22:34:20.861Z,12.53
2019-06-15T22:39:26.899Z,13.40
2019-06-15T22:44:32.190Z,12.75
2019-06-15T22:49:37.424Z,14.30
2019-06-15T22:54:42.780Z,13.45
2019-06-15T22:59:48.273Z,13.95
2019-06-15T23:04:53.256Z,14.00
2019-06-15T23:09:58.297Z,14.50
2019-06-15T23:15:07.079Z,13.50
2019-06-15T23:20:11.433Z,13.20
2019-06-15T23:25:16.943Z,13.83
2019-06-15T23:30:22.243Z,14.18
2019-06-15T23:35:32.322Z,13.45
2019-06-15T23:40:37.468Z,13.50
2019-06-15T23:45:42.522Z,13.60
2019-06-15T23:50:47.638Z,15.58
2019-06-15T23:55:53.494Z,13.40
